Terminal Aerodrome Forecast
Issued by NWS

Home | Current Version | Previous Version | Text Only | Print | Product List | Glossary On
Versions: 1 2 3 4 5 6 7 8 9 10 11 12 13 14 15 16 17 18 19 20 21 22 23 24 25
000
FTUS46 KSGX 290300 AAA
TAFSAN
TAF AMD
KSAN 290306Z 2903/3006 29003KT P6SM SKC
     FM291100 VRB04KT P6SM SCT010
     FM291530 VRB04KT P6SM SCT012
     FM291900 31011KT P6SM SKC
     FM300200 VRB04KT P6SM SCT015=

USA.gov is the U.S. government's official web portal to all federal, state and local government web resources and services.